Latest Weather Observations for Khancoban

IDN60801

Issued at 10:13 pm EDT Monday 19 November 2018 (issued every 10 minutes, with the page automatically refreshed every 10 minutes)

About weather observations | Map of weather stations | Latest weather observations for NSW | Other Formats
Station Details ID: 072162 Name: KHANCOBAN AWS Lat: -36.23 Lon: 148.14 Height: 339.3 m
Data from the previous 72 hours. | See also: Recent months at Khancoban
Date/Time
EDT
Temp
°C
App
Temp
°C
Dew
Point
°C
Rel
Hum
%
Delta-T
°C
Wind Press
QNH
hPa
Press
MSL
hPa
Rain since
9am
mm
Dir  Spd
km/h
Gust
km/h
Spd
kts
Gust
kts
19/10:00pm 14.5 14.1 9.9 74 2.4 W 2 6 1 3 1015.3 1014.4 0.0
19/09:30pm 16.0 15.8 10.3 69 3.1 NNE 2 7 1 4 1015.2 1014.3 0.0
19/09:00pm 16.3 16.3 9.9 66 3.4 CALM 0 0 0 0 1014.8 1014.0 0.0
19/08:30pm 16.0 14.9 9.9 67 3.2 S 6 7 3 4 1014.6 1013.8 0.0
19/08:00pm 17.5 17.6 10.1 62 4.0 CALM 0 0 0 0 1014.2 1013.4 0.0
19/07:30pm 21.8 21.0 10.9 50 6.1 SW 6 7 3 4 1014.1 1013.2 0.0
19/07:00pm 26.3 26.2 9.6 35 9.3 CALM 0 0 0 0 1013.9 1013.0 0.0
19/06:30pm 26.3 25.4 7.8 31 10.0 W 2 9 1 5 1013.9 1013.0 0.0
19/06:00pm 26.3 25.2 8.3 32 9.9 NW 4 7 2 4 1014.0 1013.1 0.0
19/05:30pm 25.1 23.6 9.0 36 8.9 WNW 7 9 4 5 1014.3 1013.5 0.0
19/05:00pm 25.6 23.4 7.7 32 9.7 W 9 13 5 7 1014.3 1013.5 0.0
19/04:30pm 25.7 24.2 9.1 35 9.2 W 7 15 4 8 1014.3 1013.5 0.0
19/04:00pm 25.8 23.2 5.9 28 10.4 NW 9 17 5 9 1014.8 1014.0 0.0
19/03:30pm 26.0 23.4 6.1 28 10.5 W 9 15 5 8 1015.4 1014.5 0.0
19/03:00pm 25.6 22.3 6.3 29 10.2 WNW 13 19 7 10 1015.8 1014.9 0.0
19/02:30pm 25.3 23.2 8.3 34 9.3 NW 9 19 5 10 1016.4 1015.5 0.0
19/02:00pm 24.8 22.9 7.4 33 9.3 NW 7 13 4 7 1016.7 1015.9 0.0
19/01:30pm 24.1 23.0 8.5 37 8.5 NW 4 15 2 8 1017.2 1016.4 0.0
19/01:00pm 23.5 22.5 12.2 49 6.5 NNW 9 17 5 9 1017.7 1016.9 0.0
19/12:30pm 23.1 21.9 11.5 48 6.6 NW 9 17 5 9 1018.2 1017.4 0.0
19/12:00pm 22.3 20.4 11.7 51 6.0 WNW 13 20 7 11 1018.6 1017.7 0.0
19/11:30am 21.3 20.1 11.6 54 5.5 W 9 15 5 8 1019.1 1018.2 0.0
19/11:00am 20.7 18.8 11.9 57 5.0 NW 13 20 7 11 1019.5 1018.7 0.0
19/10:30am 20.0 17.7 11.8 59 4.6 NW 15 19 8 10 1019.7 1018.9 0.0
19/10:00am 18.8 17.3 10.4 58 4.6 NW 9 15 5 8 1020.0 1019.2 0.0
19/09:30am 18.1 17.2 11.4 65 3.7 NNW 7 9 4 5 1020.2 1019.4 0.0
19/09:00am 16.9 16.4 10.7 67 3.4 NNW 4 7 2 4 1020.4 1019.6 0.0
19/08:30am 15.5 15.0 9.2 66 3.3 NW 2 7 1 4 1020.4 1019.6 0.0
19/08:00am 14.4 14.1 10.0 75 2.3 SW 2 7 1 4 1020.4 1019.6 0.0
19/07:30am 12.5 12.4 9.3 81 1.6 CALM 0 0 0 0 1020.5 1019.7 0.0
19/07:00am 10.1 9.8 10.0 99 0.1 SE 2 6 1 3 1020.4 1019.6 0.0
19/06:30am 9.4 9.2 8.9 97 0.2 CALM 0 0 0 0 1020.1 1019.3 0.0
19/06:00am 9.1 8.7 8.3 95 0.4 CALM 0 0 0 0 1019.8 1019.0 0.0
19/05:30am 9.5 9.2 8.6 94 0.4 CALM 0 0 0 0 1019.4 1018.6 0.0
19/05:00am 9.8 8.2 8.6 92 0.6 SSE 7 9 4 5 1019.3 1018.5 0.0
19/04:30am 9.7 8.1 8.6 93 0.5 SSE 7 9 4 5 1019.3 1018.5 0.0
19/04:00am 10.3 9.0 9.1 92 0.6 S 6 7 3 4 1019.3 1018.5 0.0
19/03:30am 10.4 9.8 9.0 91 0.7 SE 2 9 1 5 1019.1 1018.2 0.0
19/03:00am 10.8 10.6 8.9 88 1.0 CALM 0 7 0 4 1019.1 1018.2 0.0
19/02:30am 11.5 11.3 9.1 85 1.2 CALM 0 0 0 0 1019.3 1018.5 0.0
19/02:00am 12.2 12.0 9.0 81 1.6 CALM 0 0 0 0 1019.5 1018.7 0.0
19/01:30am 13.0 12.1 9.4 79 1.9 ENE 4 7 2 4 1019.7 1018.9 0.0
19/01:00am 14.5 13.7 9.7 73 2.5 NE 4 7 2 4 1019.9 1019.1 0.0
19/12:30am 13.5 12.3 9.4 76 2.1 SE 6 7 3 4 1020.1 1019.3 0.0
19/12:00am 14.2 12.6 8.8 70 2.8 SE 7 13 4 7 1020.1 1019.3 0.0
 
Date/Time
EDT
Temp
°C
App
Temp
°C
Dew
Point
°C
Rel
Hum
%
Delta-T
°C
Wind Press
QNH
hPa
Press
MSL
hPa
Rain since
9am
mm
Dir  Spd
km/h
Gust
km/h
Spd
kts
Gust
kts
18/11:30pm 18.0 13.7 8.0 52 5.2 ENE 20 35 11 19 1019.8 1019.0 0.0
18/11:00pm 18.3 15.1 8.3 52 5.2 ENE 15 24 8 13 1019.7 1018.9 0.0
18/10:30pm 18.1 16.0 8.4 53 5.1 E 9 17 5 9 1019.5 1018.7 0.0
18/10:00pm 19.6 15.5 8.0 47 6.1 ENE 19 28 10 15 1019.2 1018.3 0.0
18/09:30pm 20.2 16.6 8.2 46 6.3 ENE 17 24 9 13 1019.1 1018.2 0.0
18/09:00pm 21.3 17.4 8.6 44 6.8 ENE 19 26 10 14 1018.9 1018.0 0.0
18/08:30pm 21.3 17.9 9.2 46 6.6 NE 17 24 9 13 1018.6 1017.7 0.0
18/08:00pm 18.7 18.4 11.5 63 4.0 ENE 4 13 2 7 1018.5 1017.6 0.0
18/07:30pm 20.4 20.8 12.6 61 4.5 NE 2 9 1 5 1018.1 1017.3 0.0
18/07:00pm 22.7 23.6 12.9 54 5.7 CALM 0 0 0 0 1018.0 1017.2 0.0
18/06:30pm 23.8 22.9 11.2 45 7.2 WNW 7 9 4 5 1017.6 1016.8 0.0
18/06:00pm 22.4 20.8 10.2 46 6.8 WNW 9 11 5 6 1017.7 1016.9 0.0
18/05:30pm 24.9 24.3 12.2 45 7.4 NW 7 11 4 6 1017.7 1016.9 0.0
18/05:00pm 24.2 21.5 9.0 38 8.3 NW 13 15 7 8 1017.7 1016.9 0.0
18/04:30pm 24.8 22.5 9.1 37 8.6 WNW 11 17 6 9 1018.0 1017.2 0.0
18/04:00pm 24.7 22.8 6.9 32 9.4 NNW 6 13 3 7 1018.2 1017.4 0.0
18/03:30pm 24.4 21.9 8.4 36 8.7 NW 11 15 6 8 1018.8 1017.9 0.0
18/03:00pm 24.2 22.1 9.8 40 8.0 NNW 11 17 6 9 1019.2 1018.3 0.0
18/02:30pm 23.3 20.7 7.8 37 8.3 NNW 11 15 6 8 1019.6 1018.8 0.0
18/02:00pm 23.3 21.2 8.2 38 8.1 NNW 9 13 5 7 1020.1 1019.3 0.0
18/01:30pm 22.7 19.6 7.3 37 8.1 N 13 19 7 10 1020.6 1019.8 0.0
18/01:00pm 22.6 20.6 10.1 45 6.9 NW 11 19 6 10 1020.9 1020.1 0.0
18/12:30pm 22.1 19.3 7.1 38 7.9 NW 11 19 6 10 1021.2 1020.4 0.0
18/12:00pm 21.9 21.0 9.1 44 6.9 NW 4 7 2 4 1021.7 1020.8 0.0
18/11:30am 20.9 19.3 8.2 44 6.7 N 6 9 3 5 1022.2 1021.4 0.0
18/11:00am 20.3 19.4 9.2 49 6.0 ENE 4 9 2 5 1022.6 1021.8 0.0
18/10:30am 19.3 17.8 8.3 49 5.8 N 6 9 3 5 1022.8 1022.0 0.0
18/10:00am 18.4 16.7 7.5 49 5.6 S 6 7 3 4 1023.0 1022.2 0.0
18/09:30am 17.3 16.3 7.4 52 5.1 NW 2 6 1 3 1023.0 1022.2 0.0
18/09:00am 15.9 14.0 6.9 55 4.5 WNW 6 9 3 5 1023.2 1022.4 0.0
18/08:30am 15.3 14.6 6.8 57 4.2 CALM 0 0 0 0 1023.3 1022.5 0.0
18/08:00am 14.6 13.8 6.4 58 4.0 CALM 0 0 0 0 1023.2 1022.4 0.0
18/07:30am 11.9 11.3 7.2 73 2.3 CALM 0 0 0 0 1023.0 1022.2 0.0
18/07:00am 8.2 7.5 6.8 91 0.7 CALM 0 0 0 0 1022.7 1021.9 0.0
18/06:30am 7.5 6.1 5.6 88 0.9 SE 2 7 1 4 1022.5 1021.7 0.0
18/06:00am 7.7 6.3 5.5 86 1.0 SSE 2 7 1 4 1022.2 1021.4 0.0
18/05:30am 9.0 7.3 5.9 81 1.4 SSE 4 7 2 4 1022.0 1021.2 0.0
18/05:00am 8.8 7.1 5.7 81 1.4 SE 4 9 2 5 1021.8 1020.9 0.0
18/04:30am 9.7 7.4 5.7 76 1.9 SE 7 11 4 6 1021.7 1020.8 0.0
18/04:00am 11.8 9.0 5.2 64 3.1 S 9 13 5 7 1021.6 1020.7 0.0
18/03:30am 14.2 10.2 4.8 53 4.5 ESE 15 32 8 17 1021.7 1020.8 0.0
18/03:00am 14.8 11.0 5.6 54 4.4 ESE 15 24 8 13 1021.7 1020.8 0.0
18/02:30am 12.8 10.4 6.8 67 2.9 SE 9 20 5 11 1021.9 1021.1 0.0
18/02:00am 9.5 8.3 6.6 82 1.4 SE 2 6 1 3 1021.7 1020.8 0.0
18/01:30am 10.6 9.2 7.1 79 1.7 ENE 4 9 2 5 1021.6 1020.7 0.0
18/01:00am 10.3 9.2 6.8 79 1.7 NE 2 7 1 4 1021.8 1020.9 0.0
18/12:30am 11.3 10.7 7.4 77 1.9 CALM 0 6 0 3 1021.9 1021.1 0.0
18/12:00am 12.1 10.5 7.8 75 2.1 SE 6 9 3 5 1021.7 1020.8 0.0
 
Date/Time
EDT
Temp
°C
App
Temp
°C
Dew
Point
°C
Rel
Hum
%
Delta-T
°C
Wind Press
QNH
hPa
Press
MSL
hPa
Rain since
9am
mm
Dir  Spd
km/h
Gust
km/h
Spd
kts
Gust
kts
17/11:30pm 11.6 9.9 7.7 77 1.9 ENE 6 7 3 4 1021.6 1020.7 0.0
17/11:00pm 13.1 12.6 7.8 70 2.6 CALM 0 7 0 4 1021.3 1020.5 0.0
17/10:30pm 13.7 11.5 7.7 67 3.0 SSE 9 11 5 6 1021.1 1020.3 0.0
17/10:00pm 13.6 11.8 8.0 69 2.8 SE 7 11 4 6 1021.0 1020.2 0.0
17/09:30pm 14.8 13.3 6.6 58 4.1 SSW 4 9 2 5 1020.8 1020.0 0.0
17/09:00pm 18.7 16.7 6.2 44 6.3 WNW 6 11 3 6 1020.3 1019.5 0.0
17/08:30pm 18.9 16.1 5.0 40 6.8 E 9 15 5 8 1020.0 1019.2 0.0
17/08:00pm 19.3 15.7 5.0 39 7.0 E 13 17 7 9 1019.5 1018.7 0.0
17/07:30pm 20.5 17.7 5.3 37 7.6 SE 9 15 5 8 1019.3 1018.5 0.0
17/07:00pm 22.3 18.9 5.7 34 8.5 SSE 13 20 7 11 1018.9 1018.0 0.0
17/06:30pm 23.0 18.6 6.7 35 8.5 S 19 26 10 14 1018.4 1017.5 0.0
17/06:00pm 23.5 19.4 8.0 37 8.3 SSW 19 28 10 15 1018.2 1017.4 0.0
17/05:30pm 23.1 20.4 9.1 41 7.6 SSW 13 20 7 11 1018.0 1017.2 0.0
17/05:00pm 24.6 22.7 9.0 37 8.6 WSW 9 15 5 8 1018.0 1017.2 0.0
17/04:30pm 24.3 21.4 8.3 36 8.7 WSW 13 19 7 10 1018.0 1017.2 0.0
17/04:00pm 24.4 22.3 9.6 39 8.2 SSW 11 17 6 9 1018.1 1017.3 0.0
17/03:30pm 24.7 23.3 10.9 42 7.8 SSW 9 17 5 9 1018.2 1017.4 0.0
17/03:00pm 22.2 21.7 11.9 52 5.9 N 6 7 3 4 1018.7 1017.8 0.0
17/02:30pm 22.6 21.3 10.1 45 6.9 NW 7 13 4 7 1018.8 1017.9 0.0
17/02:00pm 22.8 19.7 7.4 37 8.1 SSE 13 17 7 9 1018.8 1017.9 0.0
17/01:30pm 22.6 20.4 9.4 43 7.2 SSE 11 15 6 8 1019.0 1018.1 0.0
17/01:00pm 22.3 20.2 8.4 41 7.4 SW 9 17 5 9 1019.0 1018.1 0.0
17/12:30pm 22.8 21.0 9.6 43 7.3 WNW 9 19 5 10 1019.3 1018.5 0.0
17/12:00pm 22.0 19.8 9.2 44 6.9 W 11 19 6 10 1019.5 1018.7 0.0
17/11:30am 22.0 19.9 9.9 46 6.7 SW 11 15 6 8 1019.7 1018.9 0.0
17/11:00am 21.9 20.6 11.3 51 6.0 SW 9 20 5 11 1019.7 1018.9 0.0
17/10:30am 20.5 19.2 11.2 55 5.2 WSW 9 17 5 9 1019.7 1018.9 0.0
17/10:00am 20.0 19.2 11.0 56 5.0 NE 6 11 3 6 1019.8 1019.0 0.0
17/09:30am 18.5 17.3 10.3 59 4.5 NNE 7 11 4 6 1019.8 1019.0 0.0
17/09:00am 17.4 16.3 9.8 61 4.1 NNE 6 9 3 5 1019.8 1019.0 0.0
17/08:30am 16.5 15.4 9.9 65 3.5 NE 6 7 3 4 1019.8 1019.0 0.0
17/08:00am 14.9 14.8 9.5 70 2.8 CALM 0 0 0 0 1019.7 1018.9 0.0
17/07:30am 13.7 13.8 10.3 80 1.8 CALM 0 0 0 0 1019.6 1018.8 0.0
17/07:00am 10.2 9.1 10.1 99 0.1 NE 6 7 3 4 1019.4 1018.6 0.0
17/06:30am 9.3 8.8 9.2 99 0.1 SE 2 7 1 4 1019.2 1018.3 0.0
17/06:00am 8.8 8.4 8.2 96 0.3 CALM 0 0 0 0 1018.8 1017.9 0.0
17/05:30am 9.3 9.1 9.2 99 0.1 CALM 0 0 0 0 1018.6 1017.7 0.0
17/05:00am 9.1 8.0 8.5 96 0.3 ESE 4 6 2 3 1018.2 1017.4 0.0
17/04:30am 10.0 9.5 9.2 95 0.4 ESE 2 7 1 4 1017.9 1017.1 0.0
17/04:00am 10.2 10.1 9.4 95 0.4 CALM 0 0 0 0 1017.7 1016.9 0.0
17/03:30am 10.1 9.9 9.2 94 0.5 CALM 0 7 0 4 1017.7 1016.9 0.0
17/03:00am 10.1 9.1 9.0 93 0.6 SE 4 7 2 4 1017.9 1017.1 0.0
17/02:30am 10.9 10.9 9.7 92 0.6 CALM 0 0 0 0 1017.9 1017.1 0.0
17/02:00am 10.5 10.3 9.1 91 0.7 CALM 0 0 0 0 1017.9 1017.1 0.0
17/01:30am 11.0 9.8 9.4 90 0.8 SSE 6 7 3 4 1018.0 1017.2 0.0
17/01:00am 12.0 10.9 10.1 88 1.0 NE 6 9 3 5 1018.0 1017.2 0.0
17/12:30am 11.6 11.4 9.2 85 1.2 CALM 0 0 0 0 1018.1 1017.3 0.0
17/12:00am 12.3 11.9 9.7 84 1.3 ESE 2 7 1 4 1018.1 1017.3 0.0
 
Date/Time
EDT
Temp
°C
App
Temp
°C
Dew
Point
°C
Rel
Hum
%
Delta-T
°C
Wind Press
QNH
hPa
Press
MSL
hPa
Rain since
9am
mm
Dir  Spd
km/h
Gust
km/h
Spd
kts
Gust
kts
16/11:30pm 13.0 12.3 10.0 82 1.6 ENE 4 9 2 5 1018.0 1017.2 0.0
16/11:00pm 11.9 11.0 10.5 91 0.7 N 6 9 3 5 1017.9 1017.1 0.0
16/10:30pm 12.4 11.8 10.3 87 1.1 W 4 11 2 6 1017.9 1017.1 0.0

Other Formats:

Comma delimited format used in spreadsheet applications
http://www.bom.gov.au/fwo/IDN60801/IDN60801.94919.axf

JavaScript Object Notation format (JSON) in row-major order
http://www.bom.gov.au/fwo/IDN60801/IDN60801.94919.json